Kimball Township, Michigan
Current Conditions -  °F | °C
As of 11:18 AM on Monday 26 Jan 2015 (Local Time) from KPHN Reporting Station
Scattered Clouds Scattered Clouds  
Wind Chill:   Ceiling: Unl
Heat Index: 19°   Visibility: 10mi
Dew Point: 12°   Wind: 9mph
Humidity: 74%   Direction: 20°NNE
Pressure: 29.97"   Gusts: NA
Location:  42.9481°N, 82.5626°W
Report Text: KPHN 261618Z AUTO 02008KT 10SM SCT019 M07/M11 A2997 RMK AO2
Loading
Personal Weather Stations






























Interactive Weather Map New forecast layout! Learn more

10-Day Weather Forecast

Advertisements
Track Severe Weather on mobile